Time;durP1;ratioP1;P1;durP2;ratioP2;P2;SDS_P1;SDS_P2;PMS_P1;PMS_P2;Temp;Humidity;BMP_temperature;BMP_pressure;BME280_temperature;BME280_humidity;BME280_pressure;Samples;Min_cycle;Max_cycle;Signal;HPM_P1;HPM_P2
2022/10/05 00:00:50;;;;;;;1999.90;999.90;;;9.80;99.90;;;;;;5050800;28;20961;-66
2022/10/05 00:03:18;;;;;;;1999.90;999.90;;;9.80;99.90;;;;;;5050663;28;20531;-65
2022/10/05 00:05:46;;;;;;;1999.90;999.90;;;9.90;99.90;;;;;;5050829;28;20899;-65
2022/10/05 00:08:16;;;;;;;1999.90;999.90;;;10.00;99.90;;;;;;5050666;28;20470;-65
2022/10/05 00:10:44;;;;;;;1999.90;999.90;;;9.90;99.90;;;;;;5050826;28;20439;-65
2022/10/05 00:13:15;;;;;;;1999.90;999.90;;;9.80;99.90;;;;;;5050726;28;20506;-65
2022/10/05 00:15:44;;;;;;;1999.90;999.90;;;9.70;99.90;;;;;;5050766;28;20468;-65
2022/10/05 00:18:16;;;;;;;1999.90;999.90;;;9.70;99.90;;;;;;5050643;28;20488;-65
2022/10/05 00:20:45;;;;;;;1999.90;999.90;;;9.70;99.90;;;;;;5050478;28;20450;-65
2022/10/05 00:23:17;;;;;;;1999.90;999.90;;;9.70;99.90;;;;;;5050489;28;20451;-64
2022/10/05 00:25:44;;;;;;;1999.90;999.90;;;9.80;99.90;;;;;;5050435;28;20472;-65
2022/10/05 00:28:17;;;;;;;1999.90;999.90;;;9.80;99.90;;;;;;5050501;28;20454;-65
2022/10/05 00:30:45;;;;;;;1999.90;999.90;;;9.70;99.90;;;;;;5050360;28;20456;-65
2022/10/05 00:33:12;;;;;;;1999.90;999.90;;;9.60;99.90;;;;;;5050046;28;20961;-65
2022/10/05 00:35:39;;;;;;;1999.90;999.90;;;9.60;99.90;;;;;;5049986;28;20484;-64
2022/10/05 00:38:06;;;;;;;1999.90;999.90;;;9.50;99.90;;;;;;5058439;28;20465;-66
2022/10/05 00:40:49;;;;;;;1999.90;999.90;;;9.50;99.90;;;;;;5070142;28;20538;-65
2022/10/05 00:43:31;;;;;;;1999.90;999.90;;;9.40;99.90;;;;;;5070103;28;20439;-64
2022/10/05 00:46:07;;;;;;;1999.90;999.90;;;9.30;99.90;;;;;;5070201;28;20466;-65
2022/10/05 00:48:42;;;;;;;1999.90;999.90;;;9.30;99.90;;;;;;5070277;28;20490;-65
2022/10/05 00:51:21;;;;;;;1999.90;999.90;;;9.20;99.90;;;;;;5069668;28;21010;-65
2022/10/05 00:54:08;;;;;;;1999.90;999.90;;;9.20;99.90;;;;;;5069959;28;20447;-65
2022/10/05 00:56:54;;;;;;;1999.90;999.90;;;9.20;99.90;;;;;;5069873;28;20447;-65
2022/10/05 00:59:36;;;;;;;1999.90;999.90;;;9.10;99.90;;;;;;5070165;28;20810;-65
2022/10/05 01:02:12;;;;;;;1999.90;999.90;;;9.00;99.90;;;;;;5069921;28;20505;-65
2022/10/05 01:04:46;;;;;;;1999.90;999.90;;;8.90;99.90;;;;;;5070351;28;20808;-65
2022/10/05 01:07:23;;;;;;;1999.90;999.90;;;8.90;99.90;;;;;;5070262;28;20828;-65
2022/10/05 01:09:59;;;;;;;1999.90;999.90;;;9.00;99.90;;;;;;5070195;28;20446;-65
2022/10/05 01:12:37;;;;;;;1999.90;999.90;;;9.10;99.90;;;;;;5069529;28;20470;-65
2022/10/05 01:15:11;;;;;;;1999.90;999.90;;;9.10;99.90;;;;;;5069686;28;20461;-65
2022/10/05 01:17:43;;;;;;;1999.90;999.90;;;9.00;99.90;;;;;;5069830;28;20443;-65
2022/10/05 01:20:27;;;;;;;1999.90;999.90;;;9.00;99.90;;;;;;5069855;28;20508;-65
2022/10/05 01:23:17;;;;;;;1999.90;999.90;;;8.90;99.90;;;;;;5069407;28;20440;-65
2022/10/05 01:25:55;;;;;;;1999.90;999.90;;;8.80;99.90;;;;;;5069581;28;20482;-65
2022/10/05 01:28:28;;;;;;;1999.90;999.90;;;8.80;99.90;;;;;;5069649;28;20824;-65
2022/10/05 01:30:59;;;;;;;1999.90;999.90;;;8.70;99.90;;;;;;5069656;28;20443;-65
2022/10/05 01:33:32;;;;;;;1999.90;999.90;;;8.80;99.90;;;;;;5069310;28;20434;-65
2022/10/05 01:36:05;;;;;;;1999.90;999.90;;;8.80;99.90;;;;;;5069477;28;20481;-65
2022/10/05 01:38:42;;;;;;;1999.90;999.90;;;8.80;99.90;;;;;;5069601;28;20446;-65
2022/10/05 01:41:22;;;;;;;1999.90;999.90;;;8.70;99.90;;;;;;5069552;28;20454;-65
2022/10/05 01:43:55;;;;;;;1999.90;999.90;;;8.60;99.90;;;;;;5069467;28;20438;-65
2022/10/05 01:46:35;;;;;;;1999.90;999.90;;;8.60;99.90;;;;;;5069556;28;20582;-65
2022/10/05 01:49:22;;;;;;;1999.90;999.90;;;8.60;99.90;;;;;;5069489;28;20435;-65
2022/10/05 01:52:01;;;;;;;1999.90;999.90;;;8.60;99.90;;;;;;5069228;28;20486;-65
2022/10/05 01:54:38;;;;;;;1999.90;999.90;;;8.50;99.90;;;;;;5069238;28;20459;-65
2022/10/05 01:57:13;;;;;;;1999.90;999.90;;;8.50;99.90;;;;;;5069630;28;20438;-65
2022/10/05 01:59:52;;;;;;;1999.90;999.90;;;8.50;99.90;;;;;;5069351;28;20450;-65
2022/10/05 02:02:22;;;;;;;1999.90;999.90;;;8.50;99.90;;;;;;5068983;28;20799;-65
2022/10/05 02:04:53;;;;;;;1999.90;999.90;;;8.50;99.90;;;;;;5068905;28;20463;-65
2022/10/05 02:07:23;;;;;;;1999.90;999.90;;;8.50;99.90;;;;;;5069359;28;20446;-65
2022/10/05 02:09:56;;;;;;;1999.90;999.90;;;8.40;99.90;;;;;;5069243;28;20451;-65
2022/10/05 02:12:29;;;;;;;1999.90;999.90;;;8.40;99.90;;;;;;5068917;28;20479;-65
2022/10/05 02:15:02;;;;;;;1999.90;999.90;;;8.50;99.90;;;;;;5069063;28;20466;-66
2022/10/05 02:17:36;;;;;;;1999.90;999.90;;;8.50;99.90;;;;;;5071383;28;20443;-65
2022/10/05 02:20:07;;;;;;;1999.90;999.90;;;8.60;99.90;;;;;;5073064;28;20439;-65
2022/10/05 02:22:37;;;;;;;1999.90;999.90;;;8.50;99.90;;;;;;5072608;28;20438;-65
2022/10/05 02:25:09;;;;;;;1999.90;999.90;;;8.50;99.90;;;;;;5072718;28;20471;-65
2022/10/05 02:27:40;;;;;;;1999.90;999.90;;;8.50;99.90;;;;;;5072848;28;20476;-65
2022/10/05 02:30:10;;;;;;;1999.90;999.90;;;8.50;99.90;;;;;;5072595;28;20443;-65
2022/10/05 02:32:43;;;;;;;1999.90;999.90;;;8.50;99.90;;;;;;5072275;28;20513;-66
2022/10/05 02:35:15;;;;;;;1999.90;999.90;;;8.50;99.90;;;;;;5072703;28;20475;-65
2022/10/05 02:37:55;;;;;;;1999.90;999.90;;;8.40;99.90;;;;;;5072511;28;20817;-66
2022/10/05 02:40:35;;;;;;;1999.90;999.90;;;8.40;99.90;;;;;;5072459;28;21010;-66
2022/10/05 02:43:14;;;;;;;1999.90;999.90;;;8.50;99.90;;;;;;5072572;28;20435;-65
2022/10/05 02:45:52;;;;;;;1999.90;999.90;;;8.50;99.90;;;;;;5072434;28;20466;-65
2022/10/05 02:48:27;;;;;;;1999.90;999.90;;;8.50;99.90;;;;;;5072387;28;20447;-66
2022/10/05 02:51:02;;;;;;;1999.90;999.90;;;8.50;99.90;;;;;;5072107;28;20450;-65
2022/10/05 02:53:36;;;;;;;1999.90;999.90;;;8.50;99.90;;;;;;5071989;28;21214;-66
2022/10/05 02:56:15;;;;;;;1999.90;999.90;;;8.40;99.90;;;;;;5072198;28;20470;-65
2022/10/05 02:58:52;;;;;;;1999.90;999.90;;;8.40;99.90;;;;;;5072167;28;20443;-65
2022/10/05 03:01:25;;;;;;;1999.90;999.90;;;8.40;99.90;;;;;;5071957;28;20447;-65
2022/10/05 03:04:04;;;;;;;1999.90;999.90;;;8.40;99.90;;;;;;5072156;28;20439;-66
2022/10/05 03:06:38;;;;;;;1999.90;999.90;;;8.40;99.90;;;;;;5072318;28;20454;-66
2022/10/05 03:09:06;;;;;;;1999.90;999.90;;;8.40;99.90;;;;;;5072190;28;20443;-66
2022/10/05 03:11:43;;;;;;;1999.90;999.90;;;8.40;99.90;;;;;;5071806;28;20451;-66
2022/10/05 03:14:18;;;;;;;1999.90;999.90;;;8.30;99.90;;;;;;5072308;28;20439;-66
2022/10/05 03:17:05;;;;;;;1999.90;999.90;;;8.20;99.90;;;;;;5072296;28;20447;-66
2022/10/05 03:19:51;;;;;;;1999.90;999.90;;;8.20;99.90;;;;;;5071991;28;20451;-65
2022/10/05 03:22:28;;;;;;;1999.90;999.90;;;8.20;99.90;;;;;;5071317;28;20530;-66
2022/10/05 03:25:13;;;;;;;1999.90;999.90;;;8.10;99.90;;;;;;5071672;28;21033;-66
2022/10/05 03:27:48;;;;;;;1999.90;999.90;;;8.10;99.90;;;;;;5069988;28;20793;-65
2022/10/05 03:30:17;;;;;;;1999.90;999.90;;;8.00;99.90;;;;;;5071211;28;20443;-66
2022/10/05 03:32:58;;;;;;;1999.90;999.90;;;8.10;99.90;;;;;;5071573;28;20854;-66
2022/10/05 03:35:30;;;;;;;1999.90;999.90;;;8.00;99.90;;;;;;5071418;28;20482;-67
2022/10/05 03:38:06;;;;;;;1999.90;999.90;;;8.00;99.90;;;;;;5071676;28;20446;-66
2022/10/05 03:40:39;;;;;;;1999.90;999.90;;;8.00;99.90;;;;;;5071440;28;20439;-66
2022/10/05 03:43:21;;;;;;;1999.90;999.90;;;7.90;99.90;;;;;;5071300;28;20439;-65
2022/10/05 03:45:52;;;;;;;1999.90;999.90;;;7.90;99.90;;;;;;5071269;28;20463;-66
2022/10/05 03:48:28;;;;;;;1999.90;999.90;;;7.90;99.90;;;;;;5071381;28;20458;-66
2022/10/05 03:51:04;;;;;;;1999.90;999.90;;;7.90;99.90;;;;;;5070967;28;20451;-66
2022/10/05 03:53:37;;;;;;;1999.90;999.90;;;7.80;99.90;;;;;;5071160;28;20462;-65
2022/10/05 03:56:11;;;;;;;1999.90;999.90;;;7.90;99.90;;;;;;5071161;28;20489;-66
2022/10/05 03:58:42;;;;;;;1999.90;999.90;;;8.00;99.90;;;;;;5070877;28;20933;-66
2022/10/05 04:01:15;;;;;;;1999.90;999.90;;;7.90;99.90;;;;;;5070903;28;20826;-66
2022/10/05 04:03:47;;;;;;;1999.90;999.90;;;7.90;99.90;;;;;;5070803;28;20443;-65
2022/10/05 04:06:18;;;;;;;1999.90;999.90;;;7.80;99.90;;;;;;5070669;28;21249;-66
2022/10/05 04:08:51;;;;;;;1999.90;999.90;;;7.80;99.90;;;;;;5070986;28;20439;-66
2022/10/05 04:11:22;;;;;;;1999.90;999.90;;;7.80;99.90;;;;;;5070282;28;20454;-66
2022/10/05 04:13:54;;;;;;;1999.90;999.90;;;7.80;99.90;;;;;;5070469;28;20482;-66
2022/10/05 04:16:26;;;;;;;1999.90;999.90;;;7.80;99.90;;;;;;5070354;28;20459;-66
2022/10/05 04:19:01;;;;;;;1999.90;999.90;;;7.70;99.90;;;;;;5070704;28;20447;-66
2022/10/05 04:21:32;;;;;;;1999.90;999.90;;;7.80;99.90;;;;;;5070677;28;20438;-66
2022/10/05 04:24:03;;;;;;;1999.90;999.90;;;7.80;99.90;;;;;;5070609;28;20450;-66
2022/10/05 04:26:35;;;;;;;1999.90;999.90;;;7.80;99.90;;;;;;5071266;28;20467;-68
2022/10/05 04:29:12;;;;;;;1999.90;999.90;;;7.80;99.90;;;;;;5070694;28;20443;-68
2022/10/05 04:31:56;;;;;;;1999.90;999.90;;;7.80;99.90;;;;;;5070870;28;20449;-68
2022/10/05 04:34:41;;;;;;;1999.90;999.90;;;7.80;99.90;;;;;;5069915;28;20435;-67
2022/10/05 04:37:14;;;;;;;1999.90;999.90;;;7.70;99.90;;;;;;5060978;28;20444;-67
2022/10/05 04:39:49;;;;;;;1999.90;999.90;;;7.70;99.90;;;;;;5069422;28;20442;-69
2022/10/05 04:42:26;;;;;;;1999.90;999.90;;;7.70;99.90;;;;;;5069324;28;20443;-69
2022/10/05 04:45:05;;;;;;;1999.90;999.90;;;7.60;99.90;;;;;;5069461;28;20461;-68
2022/10/05 04:47:51;;;;;;;1999.90;999.90;;;7.60;99.90;;;;;;5069173;28;20446;-66
2022/10/05 04:50:35;;;;;;;1999.90;999.90;;;7.60;99.90;;;;;;5068493;28;20818;-66
2022/10/05 04:53:10;;;;;;;1999.90;999.90;;;7.60;99.90;;;;;;5065314;28;20478;-66
2022/10/05 04:55:53;;;;;;;1999.90;999.90;;;7.60;99.90;;;;;;5066506;28;20478;-66
2022/10/05 04:58:30;;;;;;;1999.90;999.90;;;7.60;99.90;;;;;;5058322;28;20447;-67
2022/10/05 05:01:08;;;;;;;1999.90;999.90;;;7.70;99.90;;;;;;5058319;28;20440;-67
2022/10/05 05:03:48;;;;;;;1999.90;999.90;;;7.60;99.90;;;;;;5054898;28;20454;-66
2022/10/05 05:06:29;;;;;;;1999.90;999.90;;;7.60;99.90;;;;;;5061930;28;21012;-66
2022/10/05 05:09:28;;;;;;;1999.90;999.90;;;7.60;99.90;;;;;;5060861;28;20458;-67
2022/10/05 05:12:14;;;;;;;1999.90;999.90;;;7.60;99.90;;;;;;5059523;28;20455;-67
2022/10/05 05:15:03;;;;;;;1999.90;999.90;;;7.70;99.90;;;;;;5062461;28;20989;-67
2022/10/05 05:17:47;;;;;;;1999.90;999.90;;;7.80;99.90;;;;;;5066261;28;20482;-67
2022/10/05 05:20:21;;;;;;;1999.90;999.90;;;7.70;99.90;;;;;;5069820;28;20447;-67
2022/10/05 05:22:57;;;;;;;1999.90;999.90;;;7.70;99.90;;;;;;5070016;28;20443;-67
2022/10/05 05:25:38;;;;;;;1999.90;999.90;;;7.60;99.90;;;;;;5070375;28;20835;-67
2022/10/05 05:28:16;;;;;;;1999.90;999.90;;;7.60;99.90;;;;;;5068462;28;20959;-67
2022/10/05 05:30:48;;;;;;;1999.90;999.90;;;7.60;99.90;;;;;;5069592;28;20446;-67
2022/10/05 05:33:21;;;;;;;1999.90;999.90;;;7.60;99.90;;;;;;5069180;28;21007;-67
2022/10/05 05:36:14;;;;;;;1999.90;999.90;;;7.60;99.90;;;;;;5067334;28;21030;-67
2022/10/05 05:38:50;;;;;;;1999.90;999.90;;;7.60;99.90;;;;;;5061486;28;20447;-67
2022/10/05 05:41:26;;;;;;;1999.90;999.90;;;7.50;99.90;;;;;;5068769;28;20439;-67
2022/10/05 05:44:03;;;;;;;1999.90;999.90;;;7.60;99.90;;;;;;5068907;28;20457;-67
2022/10/05 05:46:36;;;;;;;1999.90;999.90;;;7.60;99.90;;;;;;5069225;28;20458;-67
2022/10/05 05:49:10;;;;;;;1999.90;999.90;;;7.70;99.90;;;;;;5069873;28;20443;-67
2022/10/05 05:51:43;;;;;;;1999.90;999.90;;;7.60;99.90;;;;;;5070126;28;20445;-67
2022/10/05 05:54:25;;;;;;;1999.90;999.90;;;7.70;99.90;;;;;;5073234;28;20858;-66
2022/10/05 05:56:59;;;;;;;1999.90;999.90;;;7.70;99.90;;;;;;5073284;28;20473;-67
2022/10/05 05:59:32;;;;;;;1999.90;999.90;;;7.70;99.90;;;;;;5073506;28;20472;-67
2022/10/05 06:02:05;;;;;;;1999.90;999.90;;;7.80;99.90;;;;;;5073308;28;20738;-67
2022/10/05 06:04:39;;;;;;;1999.90;999.90;;;7.80;99.90;;;;;;5072872;28;20462;-67
2022/10/05 06:07:11;;;;;;;1999.90;999.90;;;7.90;99.90;;;;;;5073306;28;20500;-67
2022/10/05 06:09:43;;;;;;;1999.90;999.90;;;7.90;99.90;;;;;;5073246;28;20447;-67
2022/10/05 06:12:14;;;;;;;1999.90;999.90;;;8.00;99.90;;;;;;5072666;28;20443;-67
2022/10/05 06:14:46;;;;;;;1999.90;999.90;;;8.00;99.90;;;;;;5072911;28;20482;-67
2022/10/05 06:17:17;;;;;;;1999.90;999.90;;;8.00;99.90;;;;;;5072809;28;20458;-67
2022/10/05 06:19:46;;;;;;;1999.90;999.90;;;8.00;99.90;;;;;;5073021;28;20549;-67
2022/10/05 06:22:18;;;;;;;1999.90;999.90;;;8.10;99.90;;;;;;5072721;28;20836;-67
2022/10/05 06:25:01;;;;;;;1999.90;999.90;;;8.10;99.90;;;;;;5072702;28;20995;-67
2022/10/05 06:27:35;;;;;;;1999.90;999.90;;;8.10;99.90;;;;;;5072511;28;20446;-66
2022/10/05 06:30:09;;;;;;;1999.90;999.90;;;8.10;99.90;;;;;;5072557;28;20449;-67
2022/10/05 06:32:47;;;;;;;1999.90;999.90;;;8.20;99.90;;;;;;5072414;28;20439;-67
2022/10/05 06:35:28;;;;;;;1999.90;999.90;;;8.40;99.90;;;;;;5072259;28;20479;-66
2022/10/05 06:38:13;;;;;;;1999.90;999.90;;;8.50;99.90;;;;;;5072307;28;20446;-67
2022/10/05 06:40:56;;;;;;;1999.90;999.90;;;8.60;99.90;;;;;;5072120;28;20534;-67
2022/10/05 06:43:46;;;;;;;1999.90;999.90;;;8.70;99.90;;;;;;5072199;28;20466;-67
2022/10/05 06:46:21;;;;;;;1999.90;999.90;;;8.70;99.90;;;;;;5072221;28;20470;-67
2022/10/05 06:49:03;;;;;;;1999.90;999.90;;;8.70;99.90;;;;;;5072434;28;20990;-67
2022/10/05 06:51:37;;;;;;;1999.90;999.90;;;8.80;99.90;;;;;;5072214;28;20470;-67
2022/10/05 06:54:13;;;;;;;1999.90;999.90;;;8.90;99.90;;;;;;5072090;28;20482;-67
2022/10/05 06:56:46;;;;;;;1999.90;999.90;;;9.10;99.90;;;;;;5071989;28;20449;-67
2022/10/05 06:59:19;;;;;;;1999.90;999.90;;;9.20;99.90;;;;;;5072393;28;20450;-67
2022/10/05 07:01:54;;;;;;;1999.90;999.90;;;9.30;99.90;;;;;;5071951;28;20513;-67
2022/10/05 07:04:36;;;;;;;1999.90;999.90;;;9.40;99.90;;;;;;5071963;28;20481;-67
2022/10/05 07:07:11;;;;;;;1999.90;999.90;;;9.50;99.90;;;;;;5071974;28;20447;-67
2022/10/05 07:09:43;;;;;;;1999.90;999.90;;;9.70;99.90;;;;;;5072254;28;20444;-67
2022/10/05 07:12:29;;;;;;;1999.90;999.90;;;9.70;99.90;;;;;;5071744;28;20461;-67
2022/10/05 07:15:07;;;;;;;1999.90;999.90;;;9.80;99.90;;;;;;5071775;28;20485;-67
2022/10/05 07:17:47;;;;;;;1999.90;999.90;;;9.90;99.90;;;;;;5071527;28;20447;-67
2022/10/05 07:20:18;;;;;;;1999.90;999.90;;;10.00;99.90;;;;;;5071779;28;20454;-67
2022/10/05 07:23:06;;;;;;;1999.90;999.90;;;10.10;99.90;;;;;;5071711;28;20486;-67
2022/10/05 07:25:39;;;;;;;1999.90;999.90;;;10.20;99.90;;;;;;5071607;28;20562;-67
2022/10/05 07:28:14;;;;;;;1999.90;999.90;;;10.20;99.90;;;;;;5071864;28;20449;-67
2022/10/05 07:30:47;;;;;;;1999.90;999.90;;;10.30;99.90;;;;;;5071714;28;20446;-67
2022/10/05 07:33:20;;;;;;;1999.90;999.90;;;10.40;99.90;;;;;;5071728;28;20482;-67
2022/10/05 07:38:45;;;;;;;1999.90;999.90;;;10.40;99.90;;;;;;5071926;28;20418;-67
2022/10/05 07:41:19;;;;;;;1999.90;999.90;;;10.40;99.90;;;;;;5071315;28;20956;-67
2022/10/05 07:43:52;;;;;;;1999.90;999.90;;;10.50;99.90;;;;;;5071435;28;20439;-68
2022/10/05 07:46:24;;;;;;;1999.90;999.90;;;10.60;99.90;;;;;;5071319;28;20980;-67
2022/10/05 07:49:05;;;;;;;1999.90;999.90;;;10.70;99.90;;;;;;5071218;28;20458;-67
2022/10/05 07:51:39;;;;;;;1999.90;999.90;;;10.80;99.90;;;;;;5070883;28;20451;-67
2022/10/05 07:54:21;;;;;;;1999.90;999.90;;;10.90;99.90;;;;;;5069451;28;20470;-67
2022/10/05 07:56:51;;;;;;;1999.90;999.90;;;11.00;99.90;;;;;;5070588;28;20497;-67
2022/10/05 07:59:26;;;;;;;1999.90;999.90;;;11.20;99.90;;;;;;5070179;28;20451;-67
2022/10/05 08:02:01;;;;;;;1999.90;999.90;;;11.30;99.90;;;;;;5070235;28;20446;-67
2022/10/05 08:04:34;;;;;;;1999.90;999.90;;;11.40;99.90;;;;;;5069396;28;20208;-67
2022/10/05 08:07:05;;;;;;;1999.90;999.90;;;11.50;99.90;;;;;;5070524;28;20450;-67
2022/10/05 08:09:40;;;;;;;1999.90;999.90;;;11.60;99.90;;;;;;5070401;28;20792;-67
2022/10/05 08:12:29;;;;;;;1999.90;999.90;;;11.70;99.90;;;;;;5070656;28;20443;-68
2022/10/05 08:15:02;;;;;;;1999.90;999.90;;;11.80;99.90;;;;;;5069967;28;20917;-68
2022/10/05 08:17:39;;;;;;;1999.90;999.90;;;12.00;99.90;;;;;;5070416;28;20447;-68
2022/10/05 08:20:21;;;;;;;1999.90;999.90;;;12.10;99.90;;;;;;5070182;28;20443;-67
2022/10/05 08:22:53;;;;;;;1999.90;999.90;;;12.20;99.90;;;;;;5070419;28;20449;-67
2022/10/05 08:25:25;;;;;;;1999.90;999.90;;;12.40;99.90;;;;;;5070519;28;20520;-68
2022/10/05 08:28:01;;;;;;;1999.90;999.90;;;12.50;99.90;;;;;;5070735;28;20443;-67
2022/10/05 08:30:33;;;;;;;1999.90;999.90;;;12.60;99.90;;;;;;5070249;28;20451;-67
2022/10/05 08:33:08;;;;;;;1999.90;999.90;;;12.80;99.90;;;;;;5069938;28;20833;-67
2022/10/05 08:35:39;;;;;;;1999.90;999.90;;;13.00;99.90;;;;;;5070011;28;20470;-67
2022/10/05 08:38:13;;;;;;;1999.90;999.90;;;13.00;99.90;;;;;;5070576;28;20483;-67
2022/10/05 08:41:14;;;;;;;1999.90;999.90;;;13.20;99.90;;;;;;5069889;28;20482;-67
2022/10/05 08:44:06;;;;;;;1999.90;999.90;;;13.40;99.90;;;;;;5069952;28;20442;-67
2022/10/05 08:47:04;;;;;;;1999.90;999.90;;;13.70;99.90;;;;;;5069537;28;21006;-67
2022/10/05 08:49:56;;;;;;;1999.90;999.90;;;14.00;99.90;;;;;;5070179;28;20451;-67
2022/10/05 08:52:27;;;;;;;1999.90;999.90;;;14.30;99.90;;;;;;5069867;28;20469;-67
2022/10/05 08:55:24;;;;;;;1999.90;999.90;;;14.60;99.90;;;;;;5069820;28;20486;-68
2022/10/05 08:58:07;;;;;;;1999.90;999.90;;;14.70;99.90;;;;;;5070277;28;20447;-68
2022/10/05 09:00:47;;;;;;;1999.90;999.90;;;14.70;99.90;;;;;;5069346;28;20446;-68
2022/10/05 09:03:53;;;;;;;1999.90;999.90;;;14.80;99.90;;;;;;5069634;28;20439;-68
2022/10/05 09:07:00;;;;;;;1999.90;999.90;;;14.90;99.90;;;;;;5069928;28;20478;-68
2022/10/05 09:09:41;;;;;;;1999.90;999.90;;;15.10;99.90;;;;;;5067214;28;20471;-68
2022/10/05 09:12:32;;;;;;;1999.90;999.90;;;15.20;99.90;;;;;;5069223;28;20442;-67
2022/10/05 09:15:10;;;;;;;1999.90;999.90;;;15.50;99.90;;;;;;5069614;28;20572;-68
2022/10/05 09:18:01;;;;;;;1999.90;999.90;;;15.70;99.90;;;;;;5069730;28;20442;-68
2022/10/05 09:20:49;;;;;;;1999.90;999.90;;;16.10;99.90;;;;;;5069549;28;20443;-68
2022/10/05 09:23:35;;;;;;;1999.90;999.90;;;16.40;99.90;;;;;;5069466;28;20451;-68
2022/10/05 09:26:08;;;;;;;1999.90;999.90;;;16.70;99.90;;;;;;5069765;28;20481;-68
2022/10/05 09:28:53;;;;;;;1999.90;999.90;;;17.10;99.90;;;;;;5069146;28;20447;-68
2022/10/05 09:31:41;;;;;;;1999.90;999.90;;;17.40;99.90;;;;;;5069365;28;20967;-68
2022/10/05 09:34:35;;;;;;;1999.90;999.90;;;17.70;99.90;;;;;;5069549;28;20478;-68
2022/10/05 09:37:24;;;;;;;1999.90;999.90;;;18.00;99.90;;;;;;5069516;28;20480;-66
2022/10/05 09:40:36;;;;;;;1999.90;999.90;;;18.30;99.90;;;;;;5069687;28;20442;-66
2022/10/05 09:43:29;;;;;;;1999.90;999.90;;;18.60;99.90;;;;;;5069960;28;20920;-66
2022/10/05 09:46:15;;;;;;;1999.90;999.90;;;19.20;99.90;;;;;;5069716;28;20459;-66
2022/10/05 09:49:17;;;;;;;1999.90;999.90;;;19.70;99.90;;;;;;5069549;28;20446;-66
2022/10/05 09:52:11;;;;;;;1999.90;999.90;;;20.10;99.90;;;;;;5051022;28;20458;-66
2022/10/05 09:55:27;;;;;;;1999.90;999.90;;;20.70;99.90;;;;;;5068930;28;20993;-66
2022/10/05 09:58:29;;;;;;;1999.90;999.90;;;20.90;99.90;;;;;;5068689;28;20459;-66
2022/10/05 10:01:13;;;;;;;1999.90;999.90;;;21.30;99.90;;;;;;5044141;28;20955;-66
2022/10/05 10:04:19;;;;;;;1999.90;999.90;;;21.40;99.90;;;;;;5069038;28;20462;-66
2022/10/05 10:07:12;;;;;;;1999.90;999.90;;;21.80;99.90;;;;;;5064057;28;20640;-66
2022/10/05 10:09:51;;;;;;;1999.90;999.90;;;22.10;99.90;;;;;;5060687;28;20459;-66
2022/10/05 10:12:30;;;;;;;1999.90;999.90;;;22.40;99.90;;;;;;5068980;28;20454;-66
2022/10/05 10:15:56;;;;;;;1999.90;999.90;;;22.80;99.90;;;;;;5068646;28;20489;-67
2022/10/05 10:18:41;;;;;;;1999.90;999.90;;;23.30;99.90;;;;;;5007026;28;20492;-67
2022/10/05 10:21:33;;;;;;;1999.90;999.90;;;23.70;99.90;;;;;;5006693;28;20456;-67
2022/10/05 10:24:15;;;;;;;1999.90;999.90;;;24.10;99.90;;;;;;5063580;28;20447;-67
2022/10/05 10:27:15;;;;;;;1999.90;999.90;;;24.30;99.90;;;;;;5069574;28;20525;-67
2022/10/05 10:30:19;;;;;;;1999.90;999.90;;;24.70;99.90;;;;;;5053438;28;20451;-67
2022/10/05 10:33:14;;;;;;;1999.90;999.90;;;24.80;99.90;;;;;;5068908;28;21113;-67
2022/10/05 10:35:50;;;;;;;1999.90;999.90;;;24.90;99.90;;;;;;5066627;28;20491;-67
2022/10/05 10:38:32;;;;;;;1999.90;999.90;;;25.30;99.90;;;;;;5070957;28;20438;-67
2022/10/05 10:41:45;;;;;;;1999.90;999.90;;;25.80;99.90;;;;;;5072410;28;20446;-67
2022/10/05 10:44:54;;;;;;;1999.90;999.90;;;26.10;99.90;;;;;;5072348;28;20484;-67
2022/10/05 10:47:45;;;;;;;1999.90;999.90;;;26.50;98.80;;;;;;5056548;28;20454;-67
2022/10/05 10:50:59;;;;;;;1999.90;999.90;;;26.70;98.10;;;;;;5072378;28;20439;-67
2022/10/05 10:54:02;;;;;;;1999.90;999.90;;;27.00;98.40;;;;;;5072215;28;20446;-67
2022/10/05 10:57:14;;;;;;;1999.90;999.90;;;27.60;97.50;;;;;;5072276;28;20813;-67
2022/10/05 11:00:14;;;;;;;1999.90;999.90;;;28.00;96.70;;;;;;5042332;28;20462;-67
2022/10/05 11:03:20;;;;;;;1999.90;999.90;;;28.70;95.30;;;;;;5071933;28;20451;-67
2022/10/05 11:06:10;;;;;;;1999.90;999.90;;;29.30;93.10;;;;;;5071996;28;20459;-67
2022/10/05 11:09:13;;;;;;;1999.90;999.90;;;29.50;93.20;;;;;;5072215;28;20442;-67
2022/10/05 11:12:26;;;;;;;1999.90;999.90;;;29.90;92.50;;;;;;5071620;28;20431;-68
2022/10/05 11:15:25;;;;;;;1999.90;999.90;;;30.20;92.00;;;;;;5071650;28;20478;-67
2022/10/05 11:18:18;;;;;;;1999.90;999.90;;;30.70;91.00;;;;;;5044881;28;20534;-67
2022/10/05 11:21:15;;;;;;;1999.90;999.90;;;31.20;90.40;;;;;;5071551;28;20443;-67
2022/10/05 11:24:12;;;;;;;1999.90;999.90;;;31.30;89.30;;;;;;5071718;28;20439;-67
2022/10/05 11:26:58;;;;;;;1999.90;999.90;;;31.70;88.70;;;;;;5070869;28;20860;-68
2022/10/05 11:30:00;;;;;;;1999.90;999.90;;;32.00;88.30;;;;;;5064795;28;20466;-67
2022/10/05 11:32:52;;;;;;;1999.90;999.90;;;32.50;86.10;;;;;;5068001;28;20809;-66
2022/10/05 11:35:50;;;;;;;1999.90;999.90;;;32.80;84.50;;;;;;5065355;28;20479;-66
2022/10/05 11:38:38;;;;;;;1999.90;999.90;;;32.90;82.30;;;;;;5062515;28;20968;-67
2022/10/05 11:41:32;;;;;;;1999.90;999.90;;;33.00;81.80;;;;;;5062461;28;20939;-66
2022/10/05 11:44:43;;;;;;;1999.90;999.90;;;33.10;79.50;;;;;;5066316;28;20873;-66
2022/10/05 11:47:18;;;;;;;1999.90;999.90;;;33.00;78.40;;;;;;5067054;28;20439;-67
2022/10/05 11:49:51;;;;;;;1999.90;999.90;;;33.40;78.20;;;;;;5053453;28;20530;-67
2022/10/05 11:52:23;;;;;;;1999.90;999.90;;;33.10;74.80;;;;;;5067056;28;20446;-68
2022/10/05 11:55:12;;;;;;;1999.90;999.90;;;32.80;75.30;;;;;;5070708;28;20489;-66
2022/10/05 11:57:46;;;;;;;1999.90;999.90;;;32.60;80.00;;;;;;5062702;28;20436;-65
2022/10/05 12:00:17;;;;;;;1999.90;999.90;;;33.30;76.50;;;;;;5070297;28;20824;-64
2022/10/05 12:02:59;;;;;;;1999.90;999.90;;;33.10;74.70;;;;;;5059090;28;20460;-65
2022/10/05 12:05:34;;;;;;;1999.90;999.90;;;31.70;75.10;;;;;;5061911;28;20464;-66
2022/10/05 12:08:17;;;;;;;1999.90;999.90;;;30.90;78.50;;;;;;5059744;28;20438;-66
2022/10/05 12:10:51;;;;;;;1999.90;999.90;;;30.30;81.40;;;;;;5050286;28;20440;-66
2022/10/05 12:13:32;;;;;;;1999.90;999.90;;;30.90;79.30;;;;;;5049793;28;20446;-66
2022/10/05 12:16:05;;;;;;;1999.90;999.90;;;31.20;79.70;;;;;;5053393;28;20478;-66
2022/10/05 12:18:48;;;;;;;1999.90;999.90;;;31.40;79.30;;;;;;5054799;28;20455;-66
2022/10/05 12:21:31;;;;;;;1999.90;999.90;;;31.10;78.50;;;;;;5050179;28;20455;-66
2022/10/05 12:24:06;;;;;;;1999.90;999.90;;;30.70;80.40;;;;;;5050126;28;20459;-66
2022/10/05 12:26:39;;;;;;;1999.90;999.90;;;30.00;81.70;;;;;;5059813;28;20981;-67
2022/10/05 12:29:14;;;;;;;1999.90;999.90;;;29.70;83.70;;;;;;5065139;28;20443;-66
2022/10/05 12:31:50;;;;;;;1999.90;999.90;;;30.30;83.30;;;;;;5068990;28;20446;-68
2022/10/05 12:34:27;;;;;;;1999.90;999.90;;;30.60;80.90;;;;;;5061235;28;20470;-67
2022/10/05 12:36:58;;;;;;;1999.90;999.90;;;31.00;83.30;;;;;;5063484;28;20443;-68
2022/10/05 12:39:38;;;;;;;1999.90;999.90;;;32.10;80.20;;;;;;5067579;28;20457;-68
2022/10/05 12:42:19;;;;;;;1999.90;999.90;;;32.70;77.40;;;;;;5058233;28;20448;-68
2022/10/05 12:45:02;;;;;;;1999.90;999.90;;;32.40;76.60;;;;;;5058401;28;20459;-68
2022/10/05 12:47:40;;;;;;;1999.90;999.90;;;32.40;76.10;;;;;;5061925;28;20450;-67
2022/10/05 12:50:26;;;;;;;1999.90;999.90;;;33.00;74.30;;;;;;5068359;28;20813;-68
2022/10/05 12:53:07;;;;;;;1999.90;999.90;;;33.40;75.00;;;;;;5066317;28;20447;-68
2022/10/05 12:55:42;;;;;;;1999.90;999.90;;;33.40;72.70;;;;;;5066622;28;21112;-69
2022/10/05 12:58:23;;;;;;;1999.90;999.90;;;32.20;75.40;;;;;;5069950;28;20525;-67
2022/10/05 13:00:56;;;;;;;1999.90;999.90;;;31.60;77.50;;;;;;5058986;28;20445;-68
2022/10/05 13:03:26;;;;;;;1999.90;999.90;;;30.60;81.70;;;;;;5066125;28;20440;-68
2022/10/05 13:06:03;;;;;;;1999.90;999.90;;;29.60;84.30;;;;;;5060005;28;20459;-68
2022/10/05 13:08:39;;;;;;;1999.90;999.90;;;28.80;85.00;;;;;;5059634;28;20447;-68